createdAt,value
2023-11-12T00:01:12.133Z,5.2
2023-11-12T00:02:26.426Z,5.2
2023-11-12T00:03:40.719Z,5.2
2023-11-12T00:04:55.011Z,5.3
2023-11-12T00:06:09.304Z,5.3
2023-11-12T00:07:23.597Z,5.3
2023-11-12T00:08:37.890Z,5.3
2023-11-12T00:09:52.183Z,5.3
2023-11-12T00:12:20.769Z,5.3
2023-11-12T00:13:34.078Z,5.3
2023-11-12T00:14:48.371Z,5.3
2023-11-12T00:16:02.664Z,5.3
2023-11-12T00:17:16.956Z,5.3
2023-11-12T00:18:31.249Z,5.3
2023-11-12T00:19:45.542Z,5.3
2023-11-12T00:20:59.835Z,5.4
2023-11-12T00:22:14.128Z,5.4
2023-11-12T00:23:28.421Z,5.4
2023-11-12T00:24:42.714Z,5.4
2023-11-12T00:25:57.007Z,5.4
2023-11-12T00:27:11.299Z,5.4
2023-11-12T00:28:25.592Z,5.4
2023-11-12T00:29:38.901Z,5.3
2023-11-12T00:30:53.195Z,5.3
2023-11-12T00:32:07.489Z,5.4
2023-11-12T00:33:21.781Z,5.4
2023-11-12T00:34:36.074Z,5.4
2023-11-12T00:35:50.367Z,5.4
2023-11-12T00:37:04.660Z,5.3
2023-11-12T00:38:18.953Z,5.3
2023-11-12T00:39:33.245Z,5.4
2023-11-12T00:40:47.538Z,5.3
2023-11-12T00:42:01.831Z,5.3
2023-11-12T00:43:16.124Z,5.3
2023-11-12T00:44:30.417Z,5.3
2023-11-12T00:45:43.726Z,5.3
2023-11-12T00:46:58.019Z,5.3
2023-11-12T00:48:12.312Z,5.3
2023-11-12T00:49:26.605Z,5.3
2023-11-12T00:50:40.898Z,5.3
2023-11-12T00:51:55.190Z,5.3
2023-11-12T00:53:09.484Z,5.3
2023-11-12T00:54:23.776Z,5.4
2023-11-12T00:55:38.069Z,5.3
2023-11-12T00:56:52.362Z,5.4
2023-11-12T00:58:06.655Z,5.4
2023-11-12T00:59:20.948Z,5.4
2023-11-12T01:00:35.241Z,5.4
2023-11-12T01:01:48.550Z,5.4
2023-11-12T01:03:02.842Z,5.4
2023-11-12T01:04:17.136Z,5.4
2023-11-12T01:05:31.429Z,5.4
2023-11-12T01:06:45.721Z,5.4
2023-11-12T01:08:00.014Z,5.4
2023-11-12T01:09:14.307Z,5.4
2023-11-12T01:10:28.600Z,5.4
2023-11-12T01:11:42.893Z,5.4
2023-11-12T01:12:57.186Z,5.4
2023-11-12T01:14:11.479Z,5.4
2023-11-12T01:15:25.772Z,5.3
2023-11-12T01:16:40.065Z,5.4
2023-11-12T01:17:53.373Z,5.3
2023-11-12T01:19:07.666Z,5.3
2023-11-12T01:20:21.959Z,5.4
2023-11-12T01:21:36.252Z,5.4
2023-11-12T01:22:50.545Z,5.3
2023-11-12T01:24:04.838Z,5.4
2023-11-12T01:25:19.131Z,5.4
2023-11-12T01:26:33.424Z,5.4
2023-11-12T01:27:47.717Z,5.4
2023-11-12T01:29:02.009Z,5.4
2023-11-12T01:30:16.302Z,5.4
2023-11-12T01:31:30.595Z,5.4
2023-11-12T01:32:44.888Z,5.4
2023-11-12T01:33:59.181Z,5.4
2023-11-12T01:35:12.490Z,5.4
2023-11-12T01:36:26.783Z,5.4
2023-11-12T01:37:41.076Z,5.4
2023-11-12T01:38:55.369Z,5.4
2023-11-12T01:40:09.662Z,5.4
2023-11-12T01:41:23.954Z,5.4
2023-11-12T01:42:38.247Z,5.4
2023-11-12T01:43:52.540Z,5.4
2023-11-12T01:45:06.833Z,5.4
2023-11-12T01:46:21.126Z,5.4
2023-11-12T01:47:35.419Z,5.4
2023-11-12T01:48:49.712Z,5.4
2023-11-12T01:50:04.005Z,5.4
2023-11-12T01:51:17.314Z,5.4
2023-11-12T01:52:31.607Z,5.4
2023-11-12T01:53:45.899Z,5.4
2023-11-12T01:55:00.192Z,5.4
2023-11-12T01:56:14.485Z,5.4
2023-11-12T01:57:28.778Z,5.4
2023-11-12T01:58:43.071Z,5.4
2023-11-12T01:59:57.364Z,5.4
2023-11-12T02:01:11.657Z,5.4
2023-11-12T02:02:25.950Z,5.4
2023-11-12T02:03:40.244Z,5.4
2023-11-12T02:04:54.537Z,5.4
2023-11-12T02:06:08.829Z,5.4
2023-11-12T02:07:22.138Z,5.4
2023-11-12T02:08:36.432Z,5.4
2023-11-12T02:09:50.725Z,5.4
2023-11-12T02:11:05.017Z,5.4
2023-11-12T02:12:19.310Z,5.4
2023-11-12T02:13:33.603Z,5.4
2023-11-12T02:14:47.896Z,5.5
2023-11-12T02:16:02.189Z,5.4
2023-11-12T02:17:16.482Z,5.4
2023-11-12T02:18:30.775Z,5.4
2023-11-12T02:19:45.068Z,5.4
2023-11-12T02:20:59.360Z,5.4
2023-11-12T02:22:13.653Z,5.5
2023-11-12T02:23:26.962Z,5.4
2023-11-12T02:24:41.255Z,5.5
2023-11-12T02:25:55.548Z,5.5
2023-11-12T02:27:08.862Z,5.4
2023-11-12T02:28:23.155Z,5.4
2023-11-12T02:29:37.448Z,5.5
2023-11-12T02:30:51.741Z,5.5
2023-11-12T02:32:06.034Z,5.4
2023-11-12T02:33:20.327Z,5.4
2023-11-12T02:34:34.620Z,5.4
2023-11-12T02:35:48.912Z,5.4
2023-11-12T02:37:03.205Z,5.4
2023-11-12T02:38:17.498Z,5.4
2023-11-12T02:39:31.791Z,5.4
2023-11-12T02:40:46.084Z,5.4
2023-11-12T02:42:00.377Z,5.4
2023-11-12T02:43:13.686Z,5.4
2023-11-12T02:44:27.979Z,5.4
2023-11-12T02:45:42.272Z,5.4
2023-11-12T02:46:56.564Z,5.4
2023-11-12T02:48:10.857Z,5.4
2023-11-12T02:49:25.150Z,5.4
2023-11-12T02:50:39.443Z,5.4
2023-11-12T02:51:53.736Z,5.4
2023-11-12T02:53:08.029Z,5.4
2023-11-12T02:54:22.322Z,5.4
2023-11-12T02:55:36.615Z,5.4
2023-11-12T02:56:50.907Z,5.4
2023-11-12T02:58:05.200Z,5.4
2023-11-12T02:59:18.509Z,5.4
2023-11-12T03:00:32.802Z,5.3
2023-11-12T03:01:47.095Z,5.4
2023-11-12T03:03:01.388Z,5.4
2023-11-12T03:04:15.681Z,5.4
2023-11-12T03:05:29.974Z,5.4
2023-11-12T03:06:44.267Z,5.4
2023-11-12T03:07:58.559Z,5.4
2023-11-12T03:09:12.852Z,5.4
2023-11-12T03:10:27.145Z,5.4
2023-11-12T03:11:41.438Z,5.4
2023-11-12T03:12:55.731Z,5.4
2023-11-12T03:14:10.024Z,5.4
2023-11-12T03:15:23.333Z,5.3
2023-11-12T03:16:37.626Z,5.3
2023-11-12T03:17:51.919Z,5.3
2023-11-12T03:19:06.212Z,5.3
2023-11-12T03:20:20.505Z,5.4
2023-11-12T03:21:34.798Z,5.4
2023-11-12T03:22:49.090Z,5.4
2023-11-12T03:24:03.384Z,5.4
2023-11-12T03:25:17.676Z,5.4
2023-11-12T03:26:31.969Z,5.4
2023-11-12T03:27:46.262Z,5.4
2023-11-12T03:29:00.555Z,5.4
2023-11-12T03:30:14.848Z,5.4
2023-11-12T03:31:29.141Z,5.4
2023-11-12T03:32:42.450Z,5.4
2023-11-12T03:33:56.742Z,5.4
2023-11-12T03:35:11.036Z,5.4
2023-11-12T03:36:25.328Z,5.4
2023-11-12T03:37:39.621Z,5.4
2023-11-12T03:38:53.914Z,5.4
2023-11-12T03:40:08.207Z,5.4
2023-11-12T03:41:22.500Z,5.4
2023-11-12T03:42:36.793Z,5.3
2023-11-12T03:43:51.085Z,5.4
2023-11-12T03:45:05.379Z,5.3
2023-11-12T03:46:19.672Z,5.3
2023-11-12T03:47:33.965Z,5.3
2023-11-12T03:48:47.274Z,5.3
2023-11-12T03:50:01.567Z,5.3
2023-11-12T03:51:15.860Z,5.3
2023-11-12T03:52:30.153Z,5.3
2023-11-12T03:53:44.446Z,5.3
2023-11-12T03:54:58.739Z,5.3
2023-11-12T03:56:13.032Z,5.3
2023-11-12T03:57:27.325Z,5.3
2023-11-12T03:58:41.618Z,5.3
2023-11-12T03:59:55.911Z,5.3
2023-11-12T04:01:10.203Z,5.3
2023-11-12T04:02:24.496Z,5.3
2023-11-12T04:03:38.790Z,5.3
2023-11-12T04:06:06.392Z,5.2
2023-11-12T04:07:20.685Z,5.2
2023-11-12T04:08:34.978Z,5.3
2023-11-12T04:09:49.271Z,5.3
2023-11-12T04:11:03.563Z,5.3
2023-11-12T04:12:17.856Z,5.3
2023-11-12T04:13:32.149Z,5.3
2023-11-12T04:14:46.442Z,5.3
2023-11-12T04:16:00.735Z,5.3
2023-11-12T04:17:15.028Z,5.2
2023-11-12T04:18:29.321Z,5.3
2023-11-12T04:19:43.614Z,5.3
2023-11-12T04:20:56.923Z,5.3
2023-11-12T04:22:11.216Z,5.3
2023-11-12T04:23:25.509Z,5.3
2023-11-12T04:24:39.802Z,5.3
2023-11-12T04:25:54.094Z,5.2
2023-11-12T04:27:08.387Z,5.2
2023-11-12T04:28:22.680Z,5.2
2023-11-12T04:29:36.973Z,5.2
2023-11-12T04:30:51.266Z,5.2
2023-11-12T04:32:05.559Z,5.2
2023-11-12T04:33:19.852Z,5.2
2023-11-12T04:35:48.437Z,5.2
2023-11-12T04:37:01.746Z,5.2
2023-11-12T04:38:16.039Z,5.2
2023-11-12T04:39:30.333Z,5.2
2023-11-12T04:40:44.625Z,5.2
2023-11-12T04:41:58.918Z,5.2
2023-11-12T04:43:13.211Z,5.2
2023-11-12T04:44:27.504Z,5.3
2023-11-12T04:45:41.797Z,5.3
2023-11-12T04:46:56.090Z,5.3
2023-11-12T04:48:10.382Z,5.3
2023-11-12T04:49:24.676Z,5.3
2023-11-12T04:50:38.968Z,5.3
2023-11-12T04:51:53.261Z,5.3
2023-11-12T04:53:06.570Z,5.3
2023-11-12T04:54:20.863Z,5.3
2023-11-12T04:55:35.156Z,5.2
2023-11-12T04:58:03.741Z,5.3
2023-11-12T04:59:18.034Z,5.2
2023-11-12T05:00:32.327Z,5.2
2023-11-12T05:01:46.620Z,5.3
2023-11-12T05:03:00.913Z,5.2
2023-11-12T05:04:15.206Z,5.2
2023-11-12T05:05:29.499Z,5.2
2023-11-12T05:06:43.792Z,5.2
2023-11-12T05:07:58.085Z,5.2
2023-11-12T05:09:11.394Z,5.2
2023-11-12T05:10:25.686Z,5.2
2023-11-12T05:11:39.980Z,5.2
2023-11-12T05:12:54.273Z,5.2
2023-11-12T05:14:08.565Z,5.2
2023-11-12T05:15:22.858Z,5.2
2023-11-12T05:16:37.151Z,5.2
2023-11-12T05:17:51.444Z,5.2
2023-11-12T05:19:05.737Z,5.2
2023-11-12T05:20:20.029Z,5.2
2023-11-12T05:21:34.323Z,5.2
2023-11-12T05:22:48.615Z,5.2
2023-11-12T05:24:02.908Z,5.2
2023-11-12T05:25:16.217Z,5.2
2023-11-12T05:26:30.510Z,5.2
2023-11-12T05:27:44.803Z,5.2
2023-11-12T05:28:59.096Z,5.3
2023-11-12T05:30:13.389Z,5.3
2023-11-12T05:31:27.681Z,5.3
2023-11-12T05:32:41.975Z,5.3
2023-11-12T05:33:56.268Z,5.3
2023-11-12T05:35:10.560Z,5.3
2023-11-12T05:36:24.853Z,5.3
2023-11-12T05:37:39.146Z,5.3
2023-11-12T05:38:53.439Z,5.3
2023-11-12T05:40:07.732Z,5.3
2023-11-12T05:41:22.025Z,5.2
2023-11-12T05:42:35.334Z,5.3
2023-11-12T05:43:49.627Z,5.3
2023-11-12T05:45:03.920Z,5.3
2023-11-12T05:46:18.214Z,5.3
2023-11-12T05:47:32.507Z,5.3
2023-11-12T05:48:46.800Z,5.3
2023-11-12T05:50:01.093Z,5.3
2023-11-12T05:51:15.386Z,5.3
2023-11-12T05:52:29.679Z,5.3
2023-11-12T05:53:43.973Z,5.3
2023-11-12T05:54:58.212Z,5.3
2023-11-12T05:56:12.462Z,5.3
2023-11-12T05:57:26.701Z,5.2
2023-11-12T05:58:40.939Z,5.2
2023-11-12T05:59:54.194Z,5.3
2023-11-12T06:01:08.444Z,5.3
2023-11-12T06:02:22.683Z,5.3
2023-11-12T06:03:36.922Z,5.3
2023-11-12T06:04:51.161Z,5.3
2023-11-12T06:06:05.400Z,5.3
2023-11-12T06:07:19.639Z,5.3
2023-11-12T06:08:33.878Z,5.3
2023-11-12T06:09:48.117Z,5.2
2023-11-12T06:11:02.356Z,5.2
2023-11-12T06:12:16.595Z,5.2
2023-11-12T06:13:30.834Z,5.2
2023-11-12T06:14:45.073Z,5.1
2023-11-12T06:15:59.312Z,5.1
2023-11-12T06:17:12.567Z,5.1
2023-11-12T06:18:26.806Z,5.1
2023-11-12T06:19:41.045Z,5
2023-11-12T06:20:55.284Z,5
2023-11-12T06:22:09.523Z,5
2023-11-12T06:23:23.762Z,5
2023-11-12T06:24:38.001Z,5
2023-11-12T06:25:52.240Z,5
2023-11-12T06:27:06.479Z,5
2023-11-12T06:28:20.718Z,5
2023-11-12T06:29:34.957Z,5
2023-11-12T06:30:49.196Z,4.9
2023-11-12T06:32:03.435Z,4.9
2023-11-12T06:33:16.690Z,4.9
2023-11-12T06:34:30.928Z,4.9
2023-11-12T06:35:44.189Z,4.9
2023-11-12T06:36:58.428Z,4.8
2023-11-12T06:38:12.667Z,4.8
2023-11-12T06:39:26.906Z,4.8
2023-11-12T06:40:41.145Z,4.7
2023-11-12T06:41:55.384Z,4.7
2023-11-12T06:43:09.623Z,4.6
2023-11-12T06:44:23.861Z,4.6
2023-11-12T06:45:38.100Z,4.6
2023-11-12T06:46:52.339Z,4.6
2023-11-12T06:48:06.579Z,4.5
2023-11-12T06:49:20.817Z,4.5
2023-11-12T06:50:35.056Z,4.5
2023-11-12T06:51:49.295Z,4.4
2023-11-12T06:53:02.550Z,4.5
2023-11-12T06:54:16.789Z,4.4
2023-11-12T06:55:31.028Z,4.4
2023-11-12T06:56:45.267Z,4.4
2023-11-12T06:57:59.506Z,4.4
2023-11-12T06:59:13.746Z,4.3
2023-11-12T07:00:27.985Z,4.3
2023-11-12T07:01:42.224Z,4.3
2023-11-12T07:02:56.463Z,4.3
2023-11-12T07:04:10.702Z,4.3
2023-11-12T07:05:24.941Z,4.3
2023-11-12T07:06:39.180Z,4.3
2023-11-12T07:07:53.419Z,4.3
2023-11-12T07:09:06.674Z,4.2
2023-11-12T07:10:20.913Z,4.2
2023-11-12T07:11:35.153Z,4.2
2023-11-12T07:12:49.392Z,4.1
2023-11-12T07:14:03.631Z,4.1
2023-11-12T07:15:17.871Z,4.1
2023-11-12T07:16:32.110Z,4.1
2023-11-12T07:17:46.349Z,4.1
2023-11-12T07:19:00.588Z,4.1
2023-11-12T07:20:14.827Z,4.1
2023-11-12T07:21:29.066Z,4.1
2023-11-12T07:22:43.305Z,4.1
2023-11-12T07:23:57.544Z,4.1
2023-11-12T07:25:10.799Z,4.1
2023-11-12T07:26:25.038Z,4.1
2023-11-12T07:27:39.277Z,4.1
2023-11-12T07:28:53.516Z,4.2
2023-11-12T07:30:07.755Z,4.2
2023-11-12T07:31:21.995Z,4.3
2023-11-12T07:32:36.234Z,4.3
2023-11-12T07:33:50.473Z,4.4
2023-11-12T07:35:04.713Z,4.4
2023-11-12T07:36:18.952Z,4.5
2023-11-12T07:37:33.191Z,4.6
2023-11-12T07:38:47.430Z,4.7
2023-11-12T07:40:01.669Z,4.8
2023-11-12T07:41:14.925Z,4.8
2023-11-12T07:42:29.164Z,4.8
2023-11-12T07:43:43.403Z,4.8
2023-11-12T07:44:57.642Z,4.8
2023-11-12T07:46:11.882Z,4.8
2023-11-12T07:47:26.121Z,4.8
2023-11-12T07:48:40.360Z,4.8
2023-11-12T07:49:54.599Z,4.8
2023-11-12T07:51:08.838Z,4.8
2023-11-12T07:52:23.078Z,4.8
2023-11-12T07:53:37.317Z,4.9
2023-11-12T07:54:51.556Z,4.9
2023-11-12T07:56:05.795Z,5
2023-11-12T07:57:19.050Z,4.9
2023-11-12T07:58:33.289Z,5
2023-11-12T07:59:47.528Z,5
2023-11-12T08:01:01.767Z,5.1
2023-11-12T08:02:16.006Z,5.1
2023-11-12T08:03:30.245Z,5.2
2023-11-12T08:04:44.484Z,5.2
2023-11-12T08:05:58.723Z,5.3
2023-11-12T08:07:12.962Z,5.3
2023-11-12T08:08:27.202Z,5.4
2023-11-12T08:09:41.441Z,5.6
2023-11-12T08:10:55.680Z,5.7
2023-11-12T08:12:09.919Z,6
2023-11-12T08:13:23.174Z,6.4
2023-11-12T08:14:37.413Z,6.7
2023-11-12T08:15:51.652Z,7.1
2023-11-12T08:17:05.891Z,7.5
2023-11-12T08:18:20.130Z,7.8
2023-11-12T08:19:34.369Z,8.1
2023-11-12T08:20:48.608Z,8.4
2023-11-12T08:22:02.847Z,8.7
2023-11-12T08:23:17.087Z,9
2023-11-12T08:24:31.326Z,9.3
2023-11-12T08:25:45.565Z,9.6
2023-11-12T08:26:59.804Z,9.9
2023-11-12T08:28:14.043Z,10.1
2023-11-12T08:29:27.298Z,10.3
2023-11-12T08:31:55.776Z,10.7
2023-11-12T08:33:10.015Z,10.7
2023-11-12T08:34:24.253Z,10.8
2023-11-12T08:35:38.492Z,11
2023-11-12T08:36:52.731Z,11.2
2023-11-12T08:38:06.970Z,11.4
2023-11-12T08:39:21.209Z,11.7
2023-11-12T08:40:35.447Z,11.9
2023-11-12T08:43:03.925Z,12.2
2023-11-12T08:44:18.164Z,12.5
2023-11-12T08:45:31.419Z,12.7
2023-11-12T08:46:45.659Z,12.8
2023-11-12T08:47:59.897Z,12.9
2023-11-12T08:49:14.136Z,13
2023-11-12T08:50:28.374Z,13.1
2023-11-12T08:51:42.613Z,13.2
2023-11-12T08:52:56.851Z,13.4
2023-11-12T08:54:11.089Z,13.5
2023-11-12T08:55:25.328Z,13.6
2023-11-12T08:56:39.567Z,13.7
2023-11-12T08:57:53.805Z,13.7
2023-11-12T08:59:08.044Z,13.7
2023-11-12T09:00:22.283Z,13.8
2023-11-12T09:01:35.538Z,13.9
2023-11-12T09:02:49.776Z,14
2023-11-12T09:04:04.015Z,14.1
2023-11-12T09:05:18.254Z,14.3
2023-11-12T09:06:32.492Z,14.3
2023-11-12T09:07:46.731Z,14.5
2023-11-12T09:09:00.970Z,14.6
2023-11-12T09:10:15.208Z,14.7
2023-11-12T09:11:29.447Z,14.7
2023-11-12T09:12:43.686Z,14.7
2023-11-12T09:13:57.924Z,14.6
2023-11-12T09:15:12.163Z,14.4
2023-11-12T09:17:40.640Z,14
2023-11-12T09:18:53.895Z,13.8
2023-11-12T09:20:08.133Z,13.7
2023-11-12T09:21:22.372Z,13.4
2023-11-12T09:22:36.611Z,13.3
2023-11-12T09:25:05.088Z,12.9
2023-11-12T09:26:19.326Z,12.6
2023-11-12T09:27:33.565Z,12.4
2023-11-12T09:28:47.804Z,12.3
2023-11-12T09:30:02.042Z,12.1
2023-11-12T09:31:16.281Z,12
2023-11-12T09:32:30.520Z,11.9
2023-11-12T09:33:44.758Z,11.8
2023-11-12T09:34:58.013Z,11.8
2023-11-12T09:36:12.251Z,11.7
2023-11-12T09:37:26.490Z,11.6
2023-11-12T09:38:40.729Z,11.5
2023-11-12T09:39:54.968Z,11.5
2023-11-12T09:41:09.207Z,11.4
2023-11-12T09:42:23.446Z,11.3
2023-11-12T09:43:37.685Z,11.2
2023-11-12T09:44:51.923Z,11.2
2023-11-12T09:46:06.162Z,11.1
2023-11-12T09:47:20.401Z,11
2023-11-12T09:48:34.639Z,11
2023-11-12T09:49:48.878Z,11
2023-11-12T09:51:02.133Z,11.1
2023-11-12T09:52:16.372Z,11.1
2023-11-12T09:53:30.611Z,11.1
2023-11-12T09:54:44.850Z,11.2
2023-11-12T09:55:59.088Z,11.2
2023-11-12T09:57:13.327Z,11.3
2023-11-12T09:58:27.566Z,11.4
2023-11-12T09:59:41.804Z,11.5
2023-11-12T10:00:56.043Z,11.6
2023-11-12T10:02:10.282Z,11.7
2023-11-12T10:03:24.521Z,11.8
2023-11-12T10:04:38.760Z,11.9
2023-11-12T10:05:52.998Z,12
2023-11-12T10:07:06.253Z,12
2023-11-12T10:08:20.492Z,12.1
2023-11-12T10:09:34.731Z,12.2
2023-11-12T10:10:48.970Z,12.2
2023-11-12T10:12:03.210Z,12.2
2023-11-12T10:13:17.448Z,12.2
2023-11-12T10:14:31.687Z,12.3
2023-11-12T10:15:45.925Z,12.3
2023-11-12T10:17:00.164Z,12.3
2023-11-12T10:18:14.403Z,12.3
2023-11-12T10:19:28.641Z,12.3
2023-11-12T10:20:42.880Z,12.4
2023-11-12T10:21:57.119Z,12.4
2023-11-12T10:23:10.374Z,12.4
2023-11-12T10:24:24.612Z,12.4
2023-11-12T10:25:38.851Z,12.4
2023-11-12T10:26:53.090Z,12.3
2023-11-12T10:28:07.328Z,12.2
2023-11-12T10:29:21.567Z,12.2
2023-11-12T10:30:35.806Z,12.2
2023-11-12T10:31:50.044Z,12.2
2023-11-12T10:34:18.522Z,12.2
2023-11-12T10:35:32.760Z,12.2
2023-11-12T10:36:46.999Z,12.2
2023-11-12T10:38:01.238Z,12.2
2023-11-12T10:39:14.492Z,12.2
2023-11-12T10:40:28.731Z,12.2
2023-11-12T10:41:42.971Z,12.1
2023-11-12T10:42:57.209Z,12
2023-11-12T10:44:10.469Z,12
2023-11-12T10:45:24.708Z,12
2023-11-12T10:46:38.947Z,11.9
2023-11-12T10:47:53.185Z,11.9
2023-11-12T10:49:07.424Z,11.8
2023-11-12T10:50:21.663Z,11.7
2023-11-12T10:51:35.902Z,11.6
2023-11-12T10:52:50.140Z,11.6
2023-11-12T10:54:04.379Z,11.5
2023-11-12T10:55:18.618Z,11.5
2023-11-12T10:56:32.857Z,11.5
2023-11-12T10:57:47.095Z,11.4
2023-11-12T10:59:01.334Z,11.4
2023-11-12T11:00:14.589Z,11.4
2023-11-12T11:01:28.828Z,11.4
2023-11-12T11:02:43.067Z,11.4
2023-11-12T11:03:57.306Z,11.4
2023-11-12T11:05:11.545Z,11.4
2023-11-12T11:06:25.784Z,11.4
2023-11-12T11:07:40.023Z,11.3
2023-11-12T11:08:54.262Z,11.3
2023-11-12T11:11:22.739Z,11.3
2023-11-12T11:12:36.978Z,11.3
2023-11-12T11:13:51.217Z,11.3
2023-11-12T11:15:05.455Z,11.4
2023-11-12T11:17:32.949Z,11.2
2023-11-12T11:18:47.188Z,11.3
2023-11-12T11:20:01.426Z,11.2
2023-11-12T11:21:15.665Z,11.2
2023-11-12T11:22:29.904Z,11.2
2023-11-12T11:23:44.142Z,11.2
2023-11-12T11:24:58.381Z,11.1
2023-11-12T11:26:12.620Z,11.1
2023-11-12T11:27:26.859Z,11.1
2023-11-12T11:28:41.097Z,11.1
2023-11-12T11:29:55.336Z,11.1
2023-11-12T11:31:09.575Z,11.1
2023-11-12T11:32:22.830Z,11
2023-11-12T11:33:37.068Z,11
2023-11-12T11:34:51.307Z,11
2023-11-12T11:36:05.545Z,11
2023-11-12T11:37:19.784Z,11
2023-11-12T11:38:34.022Z,11
2023-11-12T11:39:48.262Z,10.9
2023-11-12T11:41:02.500Z,10.9
2023-11-12T11:42:16.739Z,10.9
2023-11-12T11:43:30.977Z,10.9
2023-11-12T11:44:45.215Z,10.8
2023-11-12T11:45:59.454Z,10.8
2023-11-12T11:47:13.692Z,10.7
2023-11-12T11:48:26.947Z,10.7
2023-11-12T11:49:41.186Z,10.6
2023-11-12T11:50:55.424Z,10.6
2023-11-12T11:52:09.663Z,10.6
2023-11-12T11:53:23.901Z,10.6
2023-11-12T11:54:38.139Z,10.6
2023-11-12T11:55:52.378Z,10.5
2023-11-12T11:57:06.616Z,10.5
2023-11-12T11:59:35.093Z,10.5
2023-11-12T12:00:49.332Z,10.4
2023-11-12T12:02:03.570Z,10.4
2023-11-12T12:03:17.809Z,10.4
2023-11-12T12:04:31.063Z,10.3
2023-11-12T12:05:45.302Z,10.3
2023-11-12T12:06:59.540Z,10.3
2023-11-12T12:08:13.779Z,10.3
2023-11-12T12:09:28.017Z,10.2
2023-11-12T12:10:42.256Z,10.3
2023-11-12T12:11:56.495Z,10.3
2023-11-12T12:13:10.733Z,10.2
2023-11-12T12:14:24.971Z,10.2
2023-11-12T12:15:39.210Z,10.1
2023-11-12T12:16:53.449Z,10.1
2023-11-12T12:18:07.688Z,10.1
2023-11-12T12:19:21.926Z,10
2023-11-12T12:20:35.181Z,10
2023-11-12T12:21:49.421Z,10.1
2023-11-12T12:23:03.659Z,10.1
2023-11-12T12:24:17.898Z,10
2023-11-12T12:25:32.137Z,10
2023-11-12T12:26:46.375Z,10
2023-11-12T12:28:00.614Z,10
2023-11-12T12:29:14.853Z,10
2023-11-12T12:31:43.331Z,10
2023-11-12T12:32:57.569Z,10
2023-11-12T12:34:11.808Z,10
2023-11-12T12:35:26.046Z,10
2023-11-12T12:36:39.301Z,10
2023-11-12T12:37:53.540Z,10
2023-11-12T12:39:07.779Z,9.9
2023-11-12T12:40:22.018Z,9.9
2023-11-12T12:41:36.257Z,9.9
2023-11-12T12:42:50.496Z,9.9
2023-11-12T12:44:04.734Z,9.9
2023-11-12T12:45:18.973Z,9.8
2023-11-12T12:46:33.212Z,9.8
2023-11-12T12:47:47.451Z,9.7
2023-11-12T12:49:01.689Z,9.7
2023-11-12T12:50:15.928Z,9.6
2023-11-12T12:51:30.167Z,9.6
2023-11-12T12:52:43.422Z,9.6
2023-11-12T12:53:57.661Z,9.5
2023-11-12T12:55:11.900Z,9.5
2023-11-12T12:56:26.138Z,9.5
2023-11-12T12:57:40.377Z,9.4
2023-11-12T12:58:54.616Z,9.4
2023-11-12T13:00:08.854Z,9.4
2023-11-12T13:01:23.093Z,9.4
2023-11-12T13:02:37.332Z,9.5
2023-11-12T13:03:51.572Z,9.5
2023-11-12T13:05:05.810Z,9.5
2023-11-12T13:06:20.049Z,9.5
2023-11-12T13:07:34.288Z,9.5
2023-11-12T13:08:47.543Z,9.5
2023-11-12T13:10:01.782Z,9.5
2023-11-12T13:11:16.022Z,9.5
2023-11-12T13:12:30.261Z,9.5
2023-11-12T13:13:44.500Z,9.5
2023-11-12T13:14:58.740Z,9.5
2023-11-12T13:16:12.979Z,9.5
2023-11-12T13:17:27.218Z,9.5
2023-11-12T13:18:41.456Z,9.5
2023-11-12T13:19:55.695Z,9.5
2023-11-12T13:21:09.933Z,9.5
2023-11-12T13:22:24.172Z,9.5
2023-11-12T13:23:38.411Z,9.5
2023-11-12T13:24:51.666Z,9.5
2023-11-12T13:26:05.905Z,9.5
2023-11-12T13:27:20.144Z,9.5
2023-11-12T13:28:34.383Z,9.5
2023-11-12T13:29:48.621Z,9.5
2023-11-12T13:31:02.860Z,9.5
2023-11-12T13:32:17.099Z,9.5
2023-11-12T13:33:31.339Z,9.5
2023-11-12T13:34:45.578Z,9.5
2023-11-12T13:35:59.817Z,9.5
2023-11-12T13:37:14.056Z,9.5
2023-11-12T13:38:28.295Z,9.5
2023-11-12T13:39:42.534Z,9.5
2023-11-12T13:40:56.773Z,9.4
2023-11-12T13:42:10.028Z,9.4
2023-11-12T13:43:24.267Z,9.4
2023-11-12T13:44:38.506Z,9.4
2023-11-12T13:45:52.746Z,9.3
2023-11-12T13:47:06.985Z,9.3
2023-11-12T13:48:21.225Z,9.2
2023-11-12T13:49:35.464Z,9.2
2023-11-12T13:50:49.703Z,9.2
2023-11-12T13:52:03.942Z,9.1
2023-11-12T13:53:18.181Z,9.2
2023-11-12T13:54:32.420Z,9.1
2023-11-12T13:55:46.659Z,9.1
2023-11-12T13:57:00.899Z,9.1
2023-11-12T13:58:14.154Z,9.1
2023-11-12T13:59:28.393Z,9.1
2023-11-12T14:00:42.632Z,9.1
2023-11-12T14:01:56.871Z,9
2023-11-12T14:03:11.110Z,9.1
2023-11-12T14:04:25.349Z,9
2023-11-12T14:05:39.588Z,9
2023-11-12T14:06:53.827Z,9
2023-11-12T14:08:08.067Z,9
2023-11-12T14:09:22.306Z,9
2023-11-12T14:10:36.545Z,9
2023-11-12T14:11:50.784Z,9
2023-11-12T14:13:05.024Z,8.9
2023-11-12T14:14:18.279Z,8.9
2023-11-12T14:15:32.518Z,8.9
2023-11-12T14:16:46.757Z,8.9
2023-11-12T14:18:00.996Z,8.9
2023-11-12T14:19:15.235Z,8.9
2023-11-12T14:21:43.712Z,8.8
2023-11-12T14:22:57.951Z,8.8
2023-11-12T14:24:12.190Z,8.8
2023-11-12T14:25:26.429Z,8.8
2023-11-12T14:26:40.668Z,8.8
2023-11-12T14:29:09.146Z,8.7
2023-11-12T14:30:22.401Z,8.7
2023-11-12T14:31:36.640Z,8.7
2023-11-12T14:32:50.879Z,8.7
2023-11-12T14:34:05.118Z,8.7
2023-11-12T14:35:19.357Z,8.7
2023-11-12T14:36:33.596Z,8.6
2023-11-12T14:37:47.835Z,8.6
2023-11-12T14:39:02.074Z,8.6
2023-11-12T14:40:16.313Z,8.6
2023-11-12T14:41:30.552Z,8.5
2023-11-12T14:42:44.790Z,8.5
2023-11-12T14:43:59.029Z,8.5
2023-11-12T14:45:13.268Z,8.5
2023-11-12T14:46:26.522Z,8.5
2023-11-12T14:50:09.239Z,8.5
2023-11-12T14:51:22.499Z,8.4
2023-11-12T14:52:35.759Z,8.4
2023-11-12T14:53:49.998Z,8.4
2023-11-12T14:55:04.237Z,8.4
2023-11-12T14:56:18.476Z,8.4
2023-11-12T14:57:32.714Z,8.3
2023-11-12T14:58:46.953Z,8.3
2023-11-12T15:00:01.192Z,8.3
2023-11-12T15:01:15.431Z,8.3
2023-11-12T15:02:29.669Z,8.2
2023-11-12T15:03:42.930Z,8.2
2023-11-12T15:04:56.185Z,8.2
2023-11-12T15:06:10.424Z,8.3
2023-11-12T15:07:24.663Z,8.2
2023-11-12T15:08:38.901Z,8.2
2023-11-12T15:09:53.140Z,8.2
2023-11-12T15:11:07.379Z,8.2
2023-11-12T15:13:35.856Z,8.2
2023-11-12T15:14:50.095Z,8.1
2023-11-12T15:16:04.334Z,8.2
2023-11-12T15:17:18.573Z,8.1
2023-11-12T15:18:32.812Z,8.1
2023-11-12T15:19:47.051Z,8.1
2023-11-12T15:21:00.306Z,8.1
2023-11-12T15:22:14.544Z,8.1
2023-11-12T15:23:28.783Z,8.1
2023-11-12T15:24:43.022Z,8.1
2023-11-12T15:25:57.261Z,8
2023-11-12T15:27:11.500Z,8
2023-11-12T15:28:25.739Z,8
2023-11-12T15:29:39.978Z,8
2023-11-12T15:30:54.217Z,8
2023-11-12T15:32:08.455Z,8
2023-11-12T15:33:22.694Z,7.9
2023-11-12T15:34:36.933Z,7.9
2023-11-12T15:35:51.172Z,7.9
2023-11-12T15:37:04.427Z,7.9
2023-11-12T15:38:18.666Z,7.8
2023-11-12T15:40:47.144Z,7.8
2023-11-12T15:42:01.383Z,7.8
2023-11-12T15:43:15.621Z,7.8
2023-11-12T15:44:29.860Z,7.8
2023-11-12T15:45:44.100Z,7.8
2023-11-12T15:46:58.339Z,7.8
2023-11-12T15:48:12.632Z,7.8
2023-11-12T15:49:26.925Z,7.8
2023-11-12T15:50:41.218Z,7.7
2023-11-12T15:51:55.511Z,7.7
2023-11-12T15:53:08.820Z,7.7
2023-11-12T15:54:23.112Z,7.7
2023-11-12T15:55:37.405Z,7.6
2023-11-12T15:56:51.698Z,7.6
2023-11-12T15:58:05.991Z,7.6
2023-11-12T15:59:20.284Z,7.6
2023-11-12T16:00:34.577Z,7.6
2023-11-12T16:01:48.869Z,7.5
2023-11-12T16:03:03.162Z,7.5
2023-11-12T16:04:17.455Z,7.5
2023-11-12T16:05:31.748Z,7.5
2023-11-12T16:06:46.040Z,7.6
2023-11-12T16:08:00.333Z,7.5
2023-11-12T16:09:13.642Z,7.5
2023-11-12T16:10:27.935Z,7.5
2023-11-12T16:11:42.229Z,7.5
2023-11-12T16:12:56.522Z,7.5
2023-11-12T16:14:10.815Z,7.5
2023-11-12T16:15:25.108Z,7.5
2023-11-12T16:16:39.401Z,7.5
2023-11-12T16:17:53.694Z,7.5
2023-11-12T16:19:07.987Z,7.5
2023-11-12T16:20:22.280Z,7.5
2023-11-12T16:21:36.573Z,7.5
2023-11-12T16:22:50.866Z,7.5
2023-11-12T16:24:05.159Z,7.5
2023-11-12T16:25:18.468Z,7.5
2023-11-12T16:27:47.053Z,7.4
2023-11-12T16:29:01.346Z,7.4
2023-11-12T16:30:15.639Z,7.4
2023-11-12T16:32:44.225Z,7.4
2023-11-12T16:33:58.518Z,7.4
2023-11-12T16:35:12.811Z,7.4
2023-11-12T16:36:27.104Z,7.3
2023-11-12T16:37:41.397Z,7.4
2023-11-12T16:38:55.689Z,7.4
2023-11-12T16:40:09.982Z,7.4
2023-11-12T16:41:23.291Z,7.4
2023-11-12T16:42:37.585Z,7.3
2023-11-12T16:43:51.877Z,7.3
2023-11-12T16:45:06.170Z,7.2
2023-11-12T16:46:20.463Z,7.2
2023-11-12T16:47:34.756Z,7.2
2023-11-12T16:48:49.049Z,7.2
2023-11-12T16:50:03.342Z,7.1
2023-11-12T16:51:17.635Z,7.1
2023-11-12T16:52:31.928Z,7.1
2023-11-12T16:53:46.221Z,7.1
2023-11-12T16:55:00.514Z,7.1
2023-11-12T16:56:14.807Z,7.1
2023-11-12T16:57:28.116Z,7.1
2023-11-12T16:58:42.408Z,7.1
2023-11-12T16:59:56.701Z,7
2023-11-12T17:01:10.994Z,7
2023-11-12T17:02:25.287Z,6.9
2023-11-12T17:03:39.580Z,7
2023-11-12T17:04:53.873Z,6.9
2023-11-12T17:06:08.166Z,6.8
2023-11-12T17:07:22.459Z,6.8
2023-11-12T17:08:36.752Z,6.7
2023-11-12T17:09:51.045Z,6.7
2023-11-12T17:11:05.338Z,6.7
2023-11-12T17:12:19.630Z,6.7
2023-11-12T17:13:32.940Z,6.8
2023-11-12T17:14:47.233Z,6.8
2023-11-12T17:16:01.526Z,6.8
2023-11-12T17:17:15.820Z,6.7
2023-11-12T17:18:30.112Z,6.7
2023-11-12T17:19:44.405Z,6.7
2023-11-12T17:20:58.698Z,6.7
2023-11-12T17:22:12.991Z,6.7
2023-11-12T17:23:27.284Z,6.7
2023-11-12T17:24:41.577Z,6.7